Time;durP1;ratioP1;P1;durP2;ratioP2;P2;SDS_P1;SDS_P2;PMS_P1;PMS_P2;Temp;Humidity;BMP_temperature;BMP_pressure;BME280_temperature;BME280_humidity;BME280_pressure;Samples;Min_cycle;Max_cycle;Signal;HPM_P1;HPM_P2
2020/12/20 00:01:03;;;;;;;123.45;55.50;;;4.80;95.00;;;;;;5054009;28;20025;-71
2020/12/20 00:03:29;;;;;;;152.18;74.68;;;4.90;94.70;;;;;;5054291;28;20037;-72
2020/12/20 00:05:55;;;;;;;163.95;75.38;;;4.90;94.70;;;;;;5055587;28;20025;-71
2020/12/20 00:08:23;;;;;;;121.57;56.38;;;4.80;94.80;;;;;;5053838;28;20079;-70
2020/12/20 00:10:48;;;;;;;101.18;47.35;;;4.80;94.80;;;;;;5054105;28;20053;-72
2020/12/20 00:13:17;;;;;;;176.90;72.20;;;4.80;94.80;;;;;;5053941;28;20071;-71
2020/12/20 00:15:46;;;;;;;143.00;58.67;;;4.80;94.90;;;;;;5053823;28;20038;-72
2020/12/20 00:18:12;;;;;;;85.28;40.92;;;4.80;94.80;;;;;;5053912;28;20465;-72
2020/12/20 00:20:38;;;;;;;100.95;45.92;;;4.80;94.70;;;;;;5055176;28;20025;-72
2020/12/20 00:23:04;;;;;;;84.18;39.55;;;4.80;94.80;;;;;;5054559;28;20043;-72
2020/12/20 00:25:29;;;;;;;87.60;43.88;;;4.80;95.00;;;;;;5054749;28;20029;-71
2020/12/20 00:27:55;;;;;;;79.72;36.05;;;4.80;94.90;;;;;;5053749;28;20036;-71
2020/12/20 00:30:21;;;;;;;83.93;39.70;;;4.80;94.80;;;;;;5054412;28;20048;-71
2020/12/20 00:32:47;;;;;;;100.93;49.03;;;4.80;94.80;;;;;;5054901;28;20033;-72
2020/12/20 00:35:13;;;;;;;123.38;60.78;;;4.80;95.10;;;;;;5053624;28;20389;-70
2020/12/20 00:37:38;;;;;;;98.05;44.15;;;4.80;95.00;;;;;;5053262;28;20025;-71
2020/12/20 00:40:05;;;;;;;128.40;62.65;;;4.70;94.80;;;;;;5053545;28;20474;-73
2020/12/20 00:42:31;;;;;;;124.32;62.25;;;4.70;94.90;;;;;;5053878;28;20056;-71
2020/12/20 00:44:56;;;;;;;85.05;39.92;;;4.80;95.10;;;;;;5053106;28;20460;-72
2020/12/20 00:47:22;;;;;;;84.10;39.10;;;4.90;95.20;;;;;;5053421;28;20060;-71
2020/12/20 00:49:48;;;;;;;89.38;40.22;;;4.80;94.90;;;;;;5053066;28;20028;-71
2020/12/20 00:52:14;;;;;;;83.55;38.38;;;4.90;95.10;;;;;;5053248;28;20120;-72
2020/12/20 00:54:39;;;;;;;87.25;38.30;;;4.80;94.80;;;;;;5053174;28;20055;-72
2020/12/20 00:57:05;;;;;;;92.45;41.05;;;4.90;94.80;;;;;;5052901;28;20094;-71
2020/12/20 00:59:31;;;;;;;108.97;43.58;;;4.90;94.90;;;;;;5054425;28;20032;-72
2020/12/20 01:01:58;;;;;;;96.68;40.67;;;4.80;95.10;;;;;;5053110;28;20020;-70
2020/12/20 01:04:24;;;;;;;96.18;39.90;;;4.80;95.10;;;;;;5053766;28;20473;-73
2020/12/20 01:06:57;;;;;;;91.10;38.80;;;4.80;94.90;;;;;;5053022;28;20083;-71
2020/12/20 01:09:24;;;;;;;96.10;41.72;;;4.90;95.00;;;;;;5053104;28;20437;-71
2020/12/20 01:11:51;;;;;;;98.47;42.97;;;4.90;94.80;;;;;;5053626;28;20029;-72
2020/12/20 01:14:16;;;;;;;119.63;47.75;;;4.90;94.90;;;;;;5052963;28;20143;-71
2020/12/20 01:16:42;;;;;;;95.85;40.50;;;4.90;94.80;;;;;;5052883;28;20477;-70
2020/12/20 01:19:08;;;;;;;90.18;39.33;;;4.90;94.80;;;;;;5052490;28;20052;-72
2020/12/20 01:21:34;;;;;;;85.65;37.28;;;5.00;94.70;;;;;;5052810;28;20025;-74
2020/12/20 01:24:01;;;;;;;80.85;35.08;;;5.00;94.40;;;;;;5053731;28;20465;-70
2020/12/20 01:26:28;;;;;;;71.18;32.47;;;5.00;94.60;;;;;;5052496;28;20025;-72
2020/12/20 01:28:56;;;;;;;70.68;33.53;;;5.00;94.80;;;;;;5053944;28;20025;-73
2020/12/20 01:31:22;;;;;;;75.45;33.58;;;5.00;94.60;;;;;;5052432;28;20055;-72
2020/12/20 01:33:48;;;;;;;75.85;33.72;;;5.10;94.60;;;;;;5052196;28;20033;-73
2020/12/20 01:36:14;;;;;;;78.53;33.03;;;5.10;94.50;;;;;;5051979;28;20094;-73
2020/12/20 01:38:40;;;;;;;81.20;35.05;;;5.10;94.40;;;;;;5054105;28;20028;-73
2020/12/20 01:41:07;;;;;;;75.82;35.30;;;5.10;94.70;;;;;;5053522;28;20109;-75
2020/12/20 01:43:59;;;;;;;89.38;44.05;;;5.10;94.60;;;;;;5052536;28;20029;-73
2020/12/20 01:46:25;;;;;;;79.20;36.40;;;5.10;94.40;;;;;;5049743;28;20040;-75
2020/12/20 01:48:52;;;;;;;73.20;34.15;;;5.00;94.50;;;;;;5052447;28;20029;-75
2020/12/20 01:51:18;;;;;;;78.95;34.67;;;5.00;94.60;;;;;;5052423;28;20113;-76
2020/12/20 01:53:45;;;;;;;75.95;32.53;;;5.00;94.70;;;;;;5052067;28;20067;-74
2020/12/20 01:56:11;;;;;;;68.05;30.85;;;5.00;94.70;;;;;;5052347;28;20115;-74
2020/12/20 01:58:37;;;;;;;72.78;32.63;;;5.00;94.50;;;;;;5052346;28;20053;-75
2020/12/20 02:01:07;;;;;;;75.85;31.92;;;5.10;94.70;;;;;;5052054;28;20106;-73
2020/12/20 02:03:34;;;;;;;72.18;31.10;;;5.00;94.60;;;;;;5053537;28;20029;-74
2020/12/20 02:06:00;;;;;;;76.10;32.17;;;5.00;94.70;;;;;;5052720;28;20040;-72
2020/12/20 02:08:26;;;;;;;74.75;33.08;;;5.00;95.00;;;;;;5051960;28;20032;-74
2020/12/20 02:11:15;;;;;;;86.10;34.10;;;5.00;94.70;;;;;;5052454;28;20035;-75
2020/12/20 02:13:46;;;;;;;79.63;33.88;;;5.00;94.80;;;;;;5052201;28;20036;-72
2020/12/20 02:16:13;;;;;;;77.63;32.03;;;5.00;95.10;;;;;;5052265;28;20036;-76
2020/12/20 02:18:39;;;;;;;81.38;32.47;;;4.90;95.10;;;;;;5052156;28;20115;-74
2020/12/20 02:21:23;;;;;;;84.72;32.97;;;4.90;95.20;;;;;;5053144;28;20029;-73
2020/12/20 02:23:50;;;;;;;82.13;32.75;;;4.90;95.10;;;;;;5052545;28;20025;-74
2020/12/20 02:26:18;;;;;;;91.47;34.90;;;4.90;95.20;;;;;;5051735;28;20112;-73
2020/12/20 02:28:44;;;;;;;91.65;34.90;;;4.80;95.10;;;;;;5053076;28;20025;-74
2020/12/20 02:31:09;;;;;;;102.00;38.42;;;4.90;95.20;;;;;;5051751;28;20051;-74
2020/12/20 02:33:35;;;;;;;117.20;47.08;;;4.80;95.10;;;;;;5051948;28;20389;-74
2020/12/20 02:36:02;;;;;;;93.22;37.28;;;4.80;95.40;;;;;;5051712;28;20032;-75
2020/12/20 02:38:29;;;;;;;85.22;35.17;;;4.90;95.30;;;;;;5053005;28;20025;-72
2020/12/20 02:40:56;;;;;;;84.35;33.28;;;4.90;95.10;;;;;;5051977;28;20021;-74
2020/12/20 02:43:22;;;;;;;79.47;31.88;;;5.00;94.90;;;;;;5051674;28;20119;-73
2020/12/20 02:45:47;;;;;;;74.07;29.27;;;5.10;95.00;;;;;;5052117;28;20116;-73
2020/12/20 02:48:13;;;;;;;67.75;29.92;;;5.10;94.50;;;;;;5055651;28;20071;-74
2020/12/20 02:50:39;;;;;;;74.88;29.77;;;5.10;94.10;;;;;;5055466;28;20067;-74
2020/12/20 02:53:05;;;;;;;71.18;30.08;;;5.10;94.40;;;;;;5055484;28;20461;-74
2020/12/20 02:55:30;;;;;;;74.85;30.80;;;5.10;94.60;;;;;;5056094;28;20033;-72
2020/12/20 02:57:56;;;;;;;73.57;29.15;;;5.10;94.70;;;;;;5056436;28;20025;-74
2020/12/20 03:00:22;;;;;;;73.05;30.05;;;5.10;94.60;;;;;;5056202;28;20368;-73
2020/12/20 03:02:48;;;;;;;67.00;30.30;;;5.10;94.70;;;;;;5056940;28;20029;-74
2020/12/20 03:05:14;;;;;;;62.47;28.08;;;5.10;94.60;;;;;;5055359;28;20183;-74
2020/12/20 03:07:40;;;;;;;68.03;29.80;;;5.10;94.70;;;;;;5055295;28;20476;-74
2020/12/20 03:10:06;;;;;;;72.35;30.10;;;5.10;94.70;;;;;;5055109;28;20099;-73
2020/12/20 03:12:32;;;;;;;60.22;28.02;;;5.10;94.70;;;;;;5055182;28;20029;-73
2020/12/20 03:14:58;;;;;;;64.85;27.73;;;5.10;94.80;;;;;;5055143;28;20499;-74
2020/12/20 03:17:24;;;;;;;65.60;28.75;;;5.10;94.70;;;;;;5055213;28;20051;-74
2020/12/20 03:19:50;;;;;;;68.68;29.27;;;5.10;94.60;;;;;;5055086;28;20029;-73
2020/12/20 03:22:16;;;;;;;62.03;27.70;;;5.10;94.50;;;;;;5055318;28;20033;-72
2020/12/20 03:24:42;;;;;;;58.50;27.52;;;5.20;94.50;;;;;;5054734;28;20446;-73
2020/12/20 03:27:08;;;;;;;71.75;29.05;;;5.20;94.60;;;;;;5054892;28;20025;-74
2020/12/20 03:29:34;;;;;;;74.80;29.88;;;5.10;94.60;;;;;;5054875;28;20031;-73
2020/12/20 03:32:00;;;;;;;73.47;30.48;;;5.10;95.00;;;;;;5054544;28;20056;-74
2020/12/20 03:34:25;;;;;;;72.45;30.45;;;5.00;94.90;;;;;;5054773;28;20082;-72
2020/12/20 03:36:51;;;;;;;72.25;30.00;;;5.00;95.10;;;;;;5054719;28;20025;-73
2020/12/20 03:39:17;;;;;;;68.13;29.08;;;5.00;94.80;;;;;;5054421;28;20025;-73
2020/12/20 03:41:43;;;;;;;63.38;28.63;;;5.00;94.70;;;;;;5054941;28;20024;-73
2020/12/20 03:44:08;;;;;;;69.32;30.00;;;5.10;94.80;;;;;;5055747;28;20028;-74
2020/12/20 03:46:34;;;;;;;71.07;29.70;;;5.10;94.60;;;;;;5055546;28;20025;-74
2020/12/20 03:49:00;;;;;;;80.38;31.77;;;5.10;94.90;;;;;;5056100;28;20052;-75
2020/12/20 03:51:26;;;;;;;72.32;29.98;;;5.00;94.80;;;;;;5054490;28;20068;-73
2020/12/20 03:53:51;;;;;;;72.63;30.45;;;5.10;94.90;;;;;;5054149;28;20036;-73
2020/12/20 03:56:17;;;;;;;70.30;30.60;;;5.10;94.70;;;;;;5054378;28;20159;-74
2020/12/20 03:58:43;;;;;;;68.18;31.45;;;5.10;94.60;;;;;;5054181;28;20028;-73
2020/12/20 04:01:08;;;;;;;61.72;28.00;;;5.20;94.70;;;;;;5055243;28;20025;-73
2020/12/20 04:03:34;;;;;;;72.07;31.50;;;5.20;94.60;;;;;;5054701;28;20025;-74
2020/12/20 04:06:00;;;;;;;66.35;28.25;;;5.10;94.60;;;;;;5053960;28;20449;-74
2020/12/20 04:08:26;;;;;;;63.60;29.58;;;5.10;94.50;;;;;;5055945;28;20033;-73
2020/12/20 04:10:51;;;;;;;70.45;31.30;;;5.10;94.60;;;;;;5054088;28;20033;-74
2020/12/20 04:13:17;;;;;;;61.35;28.50;;;5.10;94.90;;;;;;5053654;28;20079;-73
2020/12/20 04:15:43;;;;;;;67.30;29.90;;;5.10;94.60;;;;;;5054289;28;20488;-72
2020/12/20 04:18:08;;;;;;;73.75;32.80;;;5.10;94.70;;;;;;5054029;28;20519;-74
2020/12/20 04:20:34;;;;;;;73.30;32.95;;;5.10;94.70;;;;;;5054131;28;20523;-74
2020/12/20 04:23:00;;;;;;;71.60;31.27;;;5.10;94.60;;;;;;5053426;28;20083;-74
2020/12/20 04:25:26;;;;;;;73.15;31.75;;;5.10;94.70;;;;;;5053765;28;20021;-73
2020/12/20 04:27:51;;;;;;;67.65;29.90;;;5.00;94.70;;;;;;5054216;28;20021;-72
2020/12/20 04:30:17;;;;;;;69.50;31.23;;;5.00;94.80;;;;;;5053495;28;20068;-74
2020/12/20 04:32:43;;;;;;;71.68;30.20;;;5.00;94.80;;;;;;5053967;28;20063;-73
2020/12/20 04:35:09;;;;;;;69.35;30.33;;;5.10;95.00;;;;;;5053448;28;20029;-77
2020/12/20 04:37:36;;;;;;;70.80;30.73;;;5.10;94.90;;;;;;5054933;28;20021;-73
2020/12/20 04:40:03;;;;;;;67.30;29.40;;;5.10;94.90;;;;;;5054834;28;20100;-72
2020/12/20 04:42:29;;;;;;;77.18;33.58;;;5.10;94.70;;;;;;5054510;28;20028;-75
2020/12/20 04:44:55;;;;;;;77.00;34.13;;;5.10;94.80;;;;;;5054741;28;20511;-74
2020/12/20 04:47:23;;;;;;;64.85;30.05;;;5.10;94.90;;;;;;5053494;28;20025;-73
2020/12/20 04:49:49;;;;;;;65.72;29.05;;;5.10;94.80;;;;;;5054078;28;20021;-73
2020/12/20 04:52:17;;;;;;;74.38;34.35;;;5.10;94.70;;;;;;5053274;28;20098;-72
2020/12/20 04:54:45;;;;;;;65.00;30.50;;;5.00;94.60;;;;;;5054122;28;20025;-74
2020/12/20 04:57:15;;;;;;;73.05;35.10;;;5.00;94.80;;;;;;5055101;28;20138;-73
2020/12/20 04:59:42;;;;;;;67.07;31.63;;;5.00;94.80;;;;;;5053215;28;20048;-73
2020/12/20 05:02:12;;;;;;;59.72;28.23;;;5.00;95.00;;;;;;5053338;28;20084;-72
2020/12/20 05:04:37;;;;;;;56.50;26.60;;;5.00;94.80;;;;;;5053289;28;20107;-74
2020/12/20 05:07:04;;;;;;;67.45;28.30;;;5.00;94.90;;;;;;5053025;28;20465;-74
2020/12/20 05:09:30;;;;;;;68.90;29.02;;;4.90;94.80;;;;;;5053556;28;20104;-73
2020/12/20 05:11:56;;;;;;;59.67;28.50;;;4.90;94.80;;;;;;5053400;28;20025;-72
2020/12/20 05:14:31;;;;;;;58.63;28.83;;;4.90;94.90;;;;;;5052560;28;20037;-75
2020/12/20 05:16:57;;;;;;;61.90;29.02;;;4.90;95.10;;;;;;5052673;28;20036;-74
2020/12/20 05:19:31;;;;;;;76.80;30.35;;;4.90;95.10;;;;;;5052888;28;20029;-73
2020/12/20 05:22:18;;;;;;;74.07;32.00;;;4.80;95.10;;;;;;5052744;28;20107;-73
2020/12/20 05:24:45;;;;;;;68.85;29.63;;;4.80;95.20;;;;;;5052329;28;20419;-73
2020/12/20 05:27:30;;;;;;;58.60;27.60;;;4.80;95.20;;;;;;5052818;28;20123;-72
2020/12/20 05:30:12;;;;;;;60.65;26.55;;;4.80;95.00;;;;;;5052422;28;20029;-72
2020/12/20 05:32:40;;;;;;;65.50;28.55;;;4.80;95.00;;;;;;5052645;28;20044;-75
2020/12/20 05:35:11;;;;;;;62.17;26.65;;;4.70;95.20;;;;;;5052606;28;20031;-72
2020/12/20 05:37:38;;;;;;;55.35;24.83;;;4.70;94.90;;;;;;5052408;28;20043;-72
2020/12/20 05:40:07;;;;;;;58.08;27.65;;;4.70;94.90;;;;;;5053118;28;20456;-74
2020/12/20 05:42:34;;;;;;;64.35;27.98;;;4.70;95.00;;;;;;5052736;28;20025;-73
2020/12/20 05:45:11;;;;;;;67.75;29.98;;;4.60;95.10;;;;;;5052185;28;20358;-73
2020/12/20 05:47:38;;;;;;;62.55;27.73;;;4.70;95.10;;;;;;5052740;28;20128;-74
2020/12/20 05:50:05;;;;;;;67.72;29.98;;;4.60;95.20;;;;;;5052709;28;20029;-72
2020/12/20 05:52:31;;;;;;;67.97;28.55;;;4.60;95.60;;;;;;5053321;28;20354;-75
2020/12/20 05:54:57;;;;;;;62.78;28.85;;;4.60;95.30;;;;;;5052463;28;20029;-74
2020/12/20 05:57:24;;;;;;;59.10;28.10;;;4.50;95.50;;;;;;5053638;28;20024;-73
2020/12/20 05:59:52;;;;;;;58.80;27.90;;;4.60;95.50;;;;;;5052041;28;20488;-73
2020/12/20 06:02:19;;;;;;;69.75;33.40;;;4.70;95.40;;;;;;5052298;28;20063;-72
2020/12/20 06:04:46;;;;;;;68.20;30.80;;;4.60;95.40;;;;;;5053061;28;20028;-74
2020/12/20 06:07:14;;;;;;;70.18;32.15;;;4.60;95.50;;;;;;5054036;28;20028;-73
2020/12/20 06:09:59;;;;;;;81.50;35.20;;;4.60;95.70;;;;;;5053800;28;20350;-72
2020/12/20 06:12:29;;;;;;;64.18;29.25;;;4.70;95.50;;;;;;5051908;28;20091;-72
2020/12/20 06:14:58;;;;;;;71.07;31.33;;;4.60;95.40;;;;;;5053084;28;20059;-75
2020/12/20 06:17:24;;;;;;;69.75;30.73;;;4.60;95.50;;;;;;5053038;28;20029;-72
2020/12/20 06:19:52;;;;;;;92.13;43.40;;;4.60;95.40;;;;;;5051814;28;20380;-74
2020/12/20 06:22:35;;;;;;;78.72;34.80;;;4.70;95.50;;;;;;5054922;28;20118;-74
2020/12/20 06:25:05;;;;;;;79.82;35.15;;;4.70;95.40;;;;;;5056767;28;20354;-73
2020/12/20 06:27:33;;;;;;;99.85;40.92;;;4.70;95.50;;;;;;5056001;28;20021;-73
2020/12/20 06:30:07;;;;;;;94.72;43.83;;;4.70;95.50;;;;;;5055815;28;20026;-73
2020/12/20 06:32:44;;;;;;;115.78;52.72;;;4.70;95.50;;;;;;5056004;28;20036;-72
2020/12/20 06:35:22;;;;;;;97.00;40.25;;;4.70;95.30;;;;;;5057501;28;20033;-72
2020/12/20 06:37:49;;;;;;;170.40;77.68;;;4.70;95.30;;;;;;5056068;28;20377;-74
2020/12/20 06:40:29;;;;;;;138.05;59.35;;;4.70;95.40;;;;;;5055991;28;20353;-74
2020/12/20 06:42:57;;;;;;;139.38;61.88;;;4.70;95.50;;;;;;5056425;28;20033;-73
2020/12/20 06:45:23;;;;;;;139.93;62.33;;;4.70;95.50;;;;;;5055715;28;20036;-73
2020/12/20 06:48:00;;;;;;;130.00;58.67;;;4.70;95.40;;;;;;5055426;28;20384;-73
2020/12/20 06:50:52;;;;;;;84.78;38.75;;;4.70;95.50;;;;;;5055987;28;20029;-76
2020/12/20 06:53:19;;;;;;;96.15;43.58;;;4.70;95.30;;;;;;5056193;28;20488;-74
2020/12/20 06:55:45;;;;;;;94.47;42.67;;;4.70;95.30;;;;;;5055030;28;20060;-74
2020/12/20 06:58:16;;;;;;;81.55;38.45;;;4.70;95.20;;;;;;5055780;28;20044;-75
2020/12/20 07:00:42;;;;;;;88.20;40.75;;;4.70;95.20;;;;;;5054922;28;20170;-74
2020/12/20 07:03:09;;;;;;;125.68;70.55;;;4.60;95.20;;;;;;5055994;28;20155;-74
2020/12/20 07:05:40;;;;;;;101.88;49.83;;;4.60;95.30;;;;;;5055366;28;20033;-73
2020/12/20 07:08:08;;;;;;;106.82;49.67;;;4.70;95.40;;;;;;5055525;28;20024;-73
2020/12/20 07:10:49;;;;;;;75.82;35.20;;;4.70;95.20;;;;;;5056152;28;20021;-72
2020/12/20 07:13:16;;;;;;;130.68;61.13;;;4.70;95.20;;;;;;5055180;28;20263;-74
2020/12/20 07:15:50;;;;;;;99.88;49.63;;;4.60;95.10;;;;;;5054980;28;20120;-74
2020/12/20 07:18:50;;;;;;;75.00;37.35;;;4.60;95.30;;;;;;5055117;28;20029;-73
2020/12/20 07:21:19;;;;;;;85.80;39.17;;;4.60;95.30;;;;;;5055883;28;20087;-73
2020/12/20 07:24:24;;;;;;;67.85;33.15;;;4.60;95.50;;;;;;5056270;28;20028;-74
2020/12/20 07:26:56;;;;;;;76.57;32.95;;;4.60;95.30;;;;;;5056822;28;20665;-75
2020/12/20 07:29:22;;;;;;;91.82;42.22;;;4.60;95.30;;;;;;5055151;28;20178;-73
2020/12/20 07:31:55;;;;;;;72.15;34.38;;;4.60;95.10;;;;;;5054954;28;20535;-74
2020/12/20 07:34:23;;;;;;;72.20;34.78;;;4.50;95.20;;;;;;5053777;28;20040;-74
2020/12/20 07:36:48;;;;;;;85.60;37.97;;;4.40;95.40;;;;;;5054476;28;20063;-73
2020/12/20 07:39:14;;;;;;;67.75;31.25;;;4.40;95.70;;;;;;5054779;28;20048;-74
2020/12/20 07:41:40;;;;;;;69.60;34.13;;;4.50;95.40;;;;;;5054678;28;20028;-71
2020/12/20 07:44:07;;;;;;;65.25;31.60;;;4.60;95.40;;;;;;5054394;28;20032;-74
2020/12/20 07:46:35;;;;;;;63.28;31.48;;;4.50;95.30;;;;;;5054301;28;20028;-74
2020/12/20 07:49:02;;;;;;;67.75;35.88;;;4.40;95.40;;;;;;5054916;28;20389;-73
2020/12/20 07:51:28;;;;;;;65.40;32.95;;;4.40;95.50;;;;;;5054164;28;20025;-72
2020/12/20 07:53:56;;;;;;;64.75;33.63;;;4.40;95.30;;;;;;5054397;28;20035;-72
2020/12/20 07:56:27;;;;;;;60.70;33.38;;;4.40;95.30;;;;;;5054437;28;20377;-74
2020/12/20 07:58:55;;;;;;;107.57;57.63;;;4.40;95.40;;;;;;5055346;28;20029;-72
2020/12/20 08:01:21;;;;;;;81.75;42.30;;;4.50;95.60;;;;;;5054358;28;20029;-73
2020/12/20 08:03:48;;;;;;;84.88;39.67;;;4.60;95.50;;;;;;5053668;28;20029;-73
2020/12/20 08:06:16;;;;;;;88.40;50.72;;;4.60;95.20;;;;;;5054263;28;20029;-74
2020/12/20 08:08:44;;;;;;;72.22;38.83;;;4.70;95.20;;;;;;5054169;28;20029;-73
2020/12/20 08:11:26;;;;;;;73.20;38.92;;;4.60;94.90;;;;;;5054344;28;20055;-73
2020/12/20 08:13:59;;;;;;;70.35;37.45;;;4.70;95.00;;;;;;5055708;28;20111;-73
2020/12/20 08:16:29;;;;;;;75.05;37.88;;;4.70;94.80;;;;;;5054923;28;20037;-74
2020/12/20 08:18:59;;;;;;;76.80;40.92;;;4.70;95.10;;;;;;5054106;28;20115;-72
2020/12/20 08:21:30;;;;;;;91.90;52.42;;;4.70;95.10;;;;;;5055238;28;20081;-75
2020/12/20 08:23:59;;;;;;;94.55;56.83;;;4.80;95.30;;;;;;5053896;28;20036;-75
2020/12/20 08:26:35;;;;;;;81.70;43.63;;;4.80;94.70;;;;;;5054852;28;20029;-74
2020/12/20 08:29:01;;;;;;;73.47;39.47;;;4.90;94.60;;;;;;5053644;28;20033;-73
2020/12/20 08:31:28;;;;;;;62.83;35.58;;;4.90;94.90;;;;;;5054100;28;20111;-72
2020/12/20 08:33:54;;;;;;;75.97;39.92;;;4.90;94.60;;;;;;5053263;28;20465;-70
2020/12/20 08:36:21;;;;;;;72.05;38.85;;;4.90;94.30;;;;;;5053611;28;20086;-73
2020/12/20 08:38:47;;;;;;;69.38;37.72;;;5.00;94.50;;;;;;5053595;28;20044;-76
2020/12/20 08:41:26;;;;;;;64.18;35.70;;;5.00;93.90;;;;;;5054839;28;20021;-74
2020/12/20 08:44:10;;;;;;;74.38;42.00;;;5.00;94.60;;;;;;5054752;28;20496;-73
2020/12/20 08:46:38;;;;;;;77.88;41.33;;;5.10;94.50;;;;;;5049385;28;20029;-70
2020/12/20 08:49:21;;;;;;;79.80;42.55;;;5.10;94.50;;;;;;5052043;28;20381;-73
2020/12/20 08:51:51;;;;;;;90.95;47.28;;;5.10;94.40;;;;;;5053390;28;20025;-72
2020/12/20 08:54:29;;;;;;;80.35;39.15;;;5.10;94.30;;;;;;5053134;28;20385;-72
2020/12/20 08:57:05;;;;;;;72.97;38.08;;;5.10;93.90;;;;;;5053168;28;20362;-72
2020/12/20 08:59:42;;;;;;;80.47;41.92;;;5.00;94.00;;;;;;5053019;28;20036;-72
2020/12/20 09:02:20;;;;;;;91.57;50.45;;;5.00;94.50;;;;;;5054294;28;20108;-72
2020/12/20 09:05:04;;;;;;;75.93;38.28;;;5.00;94.30;;;;;;5053130;28;20120;-72
2020/12/20 09:07:40;;;;;;;80.77;41.03;;;5.00;93.90;;;;;;5053855;28;20029;-70
2020/12/20 09:10:20;;;;;;;77.93;39.25;;;5.10;94.10;;;;;;5054026;28;20249;-71
2020/12/20 09:12:48;;;;;;;74.32;36.85;;;5.10;93.70;;;;;;5052896;28;20028;-72
2020/12/20 09:15:14;;;;;;;96.35;50.95;;;5.10;93.90;;;;;;5052612;28;20124;-72
2020/12/20 09:17:48;;;;;;;85.25;45.25;;;5.10;94.90;;;;;;5052712;28;20036;-72
2020/12/20 09:20:20;;;;;;;115.20;56.00;;;5.20;94.30;;;;;;5052939;28;20048;-72
2020/12/20 09:22:56;;;;;;;96.55;49.15;;;5.10;94.10;;;;;;5053517;28;20112;-73
2020/12/20 09:25:32;;;;;;;105.97;51.05;;;5.10;94.30;;;;;;5053347;28;20032;-72
2020/12/20 09:28:01;;;;;;;123.00;59.05;;;5.10;94.40;;;;;;5052393;28;20025;-72
2020/12/20 09:30:57;;;;;;;107.78;57.22;;;5.20;94.60;;;;;;5052472;28;20072;-73
2020/12/20 09:33:47;;;;;;;97.85;51.33;;;5.20;94.50;;;;;;5043662;28;20037;-72
2020/12/20 09:36:21;;;;;;;97.25;49.63;;;5.30;94.70;;;;;;5045264;28;20044;-73
2020/12/20 09:38:53;;;;;;;100.32;56.63;;;5.30;94.60;;;;;;5053660;28;20461;-72
2020/12/20 09:41:26;;;;;;;207.68;108.60;;;5.30;94.40;;;;;;5054063;28;20033;-72
2020/12/20 09:43:54;;;;;;;141.18;67.63;;;5.30;94.50;;;;;;5053425;28;20028;-72
2020/12/20 09:46:23;;;;;;;139.70;63.80;;;5.20;94.30;;;;;;5053232;28;20017;-72
2020/12/20 09:48:51;;;;;;;117.05;54.97;;;5.30;94.40;;;;;;5053417;28;20024;-72
2020/12/20 09:51:18;;;;;;;133.60;58.47;;;5.30;94.00;;;;;;5052441;28;20040;-72
2020/12/20 09:53:45;;;;;;;146.45;59.75;;;5.20;94.10;;;;;;5053543;28;20032;-73
2020/12/20 09:56:12;;;;;;;153.82;73.10;;;5.20;94.30;;;;;;5051642;28;20119;-73
2020/12/20 09:58:38;;;;;;;147.80;67.22;;;5.20;94.10;;;;;;5053635;28;20107;-73
2020/12/20 10:01:04;;;;;;;145.50;68.70;;;5.20;94.40;;;;;;5052352;28;20476;-73
2020/12/20 10:03:30;;;;;;;152.55;69.25;;;5.20;94.30;;;;;;5051910;28;20029;-73
2020/12/20 10:06:00;;;;;;;158.23;73.00;;;5.20;94.30;;;;;;5052201;28;20032;-73
2020/12/20 10:08:28;;;;;;;139.68;66.20;;;5.30;94.20;;;;;;5052219;28;20078;-72
2020/12/20 10:10:55;;;;;;;154.95;74.00;;;5.30;94.10;;;;;;5051583;28;20025;-71
2020/12/20 10:13:22;;;;;;;156.20;74.05;;;5.30;94.10;;;;;;5052067;28;20036;-74
2020/12/20 10:15:48;;;;;;;124.10;63.50;;;5.40;94.10;;;;;;5052745;28;20029;-72
2020/12/20 10:18:15;;;;;;;158.30;80.70;;;5.30;94.00;;;;;;5050860;28;20033;-71
2020/12/20 10:20:41;;;;;;;166.90;92.50;;;5.40;93.90;;;;;;5048060;28;20123;-71
2020/12/20 10:23:07;;;;;;;140.93;77.75;;;5.20;93.90;;;;;;5050381;28;20115;-71
2020/12/20 10:25:33;;;;;;;125.35;61.53;;;5.10;94.30;;;;;;5051503;28;20365;-71
2020/12/20 10:27:59;;;;;;;153.23;74.38;;;5.20;94.40;;;;;;5052159;28;20036;-71
2020/12/20 10:30:25;;;;;;;146.00;71.32;;;5.20;94.20;;;;;;5051871;28;20048;-70
2020/12/20 10:32:52;;;;;;;126.78;62.53;;;5.20;94.40;;;;;;5051553;28;20040;-70
2020/12/20 10:35:18;;;;;;;129.68;66.47;;;5.30;94.30;;;;;;5052097;28;20033;-67
2020/12/20 10:37:45;;;;;;;137.80;75.25;;;5.30;94.20;;;;;;5051819;28;20025;-68
2020/12/20 10:40:11;;;;;;;138.32;76.20;;;5.30;94.10;;;;;;5051459;28;20024;-67
2020/12/20 10:42:37;;;;;;;110.43;55.75;;;5.40;94.20;;;;;;5052020;28;20087;-67
2020/12/20 10:45:04;;;;;;;129.40;70.85;;;5.40;94.50;;;;;;5052661;28;20500;-68
2020/12/20 10:47:30;;;;;;;122.90;62.67;;;5.40;94.50;;;;;;5053450;28;20108;-70
2020/12/20 10:49:55;;;;;;;98.05;51.22;;;5.50;94.50;;;;;;5052843;28;20454;-67
2020/12/20 10:52:21;;;;;;;119.78;57.65;;;5.50;94.20;;;;;;5053005;28;20087;-70
2020/12/20 10:54:47;;;;;;;112.68;58.20;;;5.50;94.30;;;;;;5051752;28;20035;-73
2020/12/20 10:57:13;;;;;;;90.93;47.22;;;5.50;94.30;;;;;;5051682;28;20428;-73
2020/12/20 10:59:39;;;;;;;100.65;52.95;;;5.50;94.10;;;;;;5052670;28;20026;-71
2020/12/20 11:02:05;;;;;;;110.38;56.65;;;5.40;93.70;;;;;;5051700;28;20029;-72
2020/12/20 11:04:31;;;;;;;89.25;45.80;;;5.40;94.10;;;;;;5051677;28;20035;-74
2020/12/20 11:07:01;;;;;;;79.75;40.33;;;5.50;93.90;;;;;;5051653;28;20037;-74
2020/12/20 11:09:27;;;;;;;197.32;111.22;;;5.50;93.80;;;;;;5055563;28;20025;-74
2020/12/20 11:11:54;;;;;;;217.90;121.68;;;5.50;94.00;;;;;;5056741;28;20052;-74
2020/12/20 11:14:21;;;;;;;106.30;57.67;;;5.50;93.80;;;;;;5055763;28;20044;-71
2020/12/20 11:16:54;;;;;;;132.60;70.93;;;5.50;94.00;;;;;;5056077;28;20100;-72
2020/12/20 11:19:20;;;;;;;96.00;48.20;;;5.50;93.80;;;;;;5055061;28;20373;-73
2020/12/20 11:21:48;;;;;;;94.28;45.40;;;5.50;93.80;;;;;;5054665;28;20095;-71
2020/12/20 11:24:13;;;;;;;85.10;41.72;;;5.60;94.20;;;;;;5054697;28;20044;-72
2020/12/20 11:26:44;;;;;;;83.85;43.60;;;5.50;94.10;;;;;;5054901;28;20025;-74
2020/12/20 11:29:12;;;;;;;100.68;50.53;;;5.50;94.50;;;;;;5055142;28;20025;-76
2020/12/20 11:31:37;;;;;;;86.05;45.22;;;5.50;94.20;;;;;;5054593;28;20045;-72
2020/12/20 11:34:04;;;;;;;86.50;42.20;;;5.50;94.10;;;;;;5055391;28;20354;-72
2020/12/20 11:36:29;;;;;;;88.68;42.63;;;5.60;94.10;;;;;;5054708;28;20033;-72
2020/12/20 11:38:55;;;;;;;87.80;42.60;;;5.60;94.00;;;;;;5054844;28;20032;-73
2020/12/20 11:41:22;;;;;;;86.40;41.67;;;5.50;94.10;;;;;;5054373;28;20075;-73
2020/12/20 11:43:48;;;;;;;81.28;40.10;;;5.60;94.00;;;;;;5054897;28;20028;-72
2020/12/20 11:46:14;;;;;;;93.47;47.58;;;5.60;93.80;;;;;;5054522;28;20028;-72
2020/12/20 11:48:40;;;;;;;85.75;42.30;;;5.60;93.90;;;;;;5054235;28;20029;-71
2020/12/20 11:51:11;;;;;;;137.07;85.03;;;5.50;93.50;;;;;;5054502;28;20025;-71
2020/12/20 11:53:37;;;;;;;124.32;67.35;;;5.50;94.10;;;;;;5054426;28;20029;-72
2020/12/20 11:56:07;;;;;;;122.70;68.35;;;5.40;94.00;;;;;;5054198;28;20062;-72
2020/12/20 11:58:33;;;;;;;127.93;70.68;;;5.40;94.20;;;;;;5054086;28;20033;-71
2020/12/20 12:00:59;;;;;;;124.10;60.17;;;5.30;94.20;;;;;;5054392;28;20358;-73
2020/12/20 12:03:25;;;;;;;127.28;62.40;;;5.30;94.50;;;;;;5054033;28;20469;-71
2020/12/20 12:05:51;;;;;;;200.38;105.80;;;5.30;94.10;;;;;;5054406;28;20036;-73
2020/12/20 12:08:17;;;;;;;161.77;96.18;;;5.30;94.70;;;;;;5054286;28;20025;-74
2020/12/20 12:10:46;;;;;;;130.07;79.82;;;5.40;94.50;;;;;;5053911;28;20035;-75
2020/12/20 12:13:13;;;;;;;110.70;66.57;;;5.40;94.40;;;;;;5055212;28;20067;-75
2020/12/20 12:15:39;;;;;;;89.82;47.88;;;5.50;94.20;;;;;;5054929;28;20083;-75
2020/12/20 12:18:05;;;;;;;114.07;61.58;;;5.50;94.30;;;;;;5053318;28;20068;-76
2020/12/20 12:20:31;;;;;;;152.48;97.05;;;5.50;94.20;;;;;;5053568;28;20063;-76
2020/12/20 12:22:58;;;;;;;237.65;148.68;;;5.50;94.40;;;;;;5054613;28;20090;-72
2020/12/20 12:25:25;;;;;;;128.60;72.15;;;5.40;94.50;;;;;;5053139;28;20028;-72
2020/12/20 12:27:50;;;;;;;123.72;61.30;;;5.40;94.90;;;;;;5052507;28;20457;-72
2020/12/20 12:30:16;;;;;;;127.20;70.28;;;5.40;94.40;;;;;;5054015;28;20045;-72
2020/12/20 12:32:42;;;;;;;120.65;61.42;;;5.40;94.60;;;;;;5053483;28;20376;-72
2020/12/20 12:35:09;;;;;;;132.18;73.57;;;5.20;94.60;;;;;;5054603;28;20032;-72
2020/12/20 12:37:35;;;;;;;108.72;55.22;;;5.20;95.10;;;;;;5054773;28;20029;-72
2020/12/20 12:40:03;;;;;;;123.80;66.10;;;5.30;94.80;;;;;;5053604;28;20164;-72